Thursday, May 25, 2017, 8:23 AM EDT

KEZF, Fredericksburg, Shannon Airport

Location: Fredericksburg, VA, United States Lat: 38.267
Local Time: 8:23 AM EDT (12:23 GMT) Lon: -77.45
Time Zone: US/Eastern Elev: 85 ft

Show me the last for .
Show Decoded

2017-05-25 07:35 METAR KEZF 251135Z AUTO 33003KT 10SM SCT004 BKN017 15/15 A2945 RMK AO2 T01510151
                 =
2017-05-25 07:15 METAR KEZF 251115Z AUTO 33008KT 3SM -DZ SCT006 OVC014 15/15 A2946 RMK AO2
                 T01520152 =
2017-05-25 06:55 METAR KEZF 251055Z AUTO 30005KT 4SM +DZ OVC004 16/16 A2948 RMK AO2 P0002
                 T01580158 =
2017-05-25 06:35 METAR KEZF 251035Z AUTO 00000KT 5SM DZ OVC006 16/16 A2947 RMK AO2 P0001
                 T01570157 =
2017-05-25 06:15 METAR KEZF 251015Z AUTO 00000KT 7SM RA OVC006 16/16 A2946 RMK AO2 P0001
                 T01560156 =
2017-05-25 05:55 METAR KEZF 250955Z AUTO 09005KT 7SM -DZ OVC006 16/16 A2946 RMK AO2 P0022
                 T01550155 =
2017-05-25 05:35 METAR KEZF 250935Z AUTO 10004KT 7SM -RA OVC006 16/16 A2947 RMK AO2 P0021
                 T01550155 =
2017-05-25 05:15 METAR KEZF 250915Z AUTO 10003KT 7SM -RA OVC004 16/16 A2947 RMK AO2 P0002
                 T01550155 =
2017-05-25 04:55 METAR KEZF 250855Z AUTO 11003KT 7SM RA OVC004 15/15 A2947 RMK AO2 P0004 60023
                 T01530153 =
2017-05-25 04:35 METAR KEZF 250835Z AUTO 10006KT 7SM -RA OVC004 15/15 A2947 RMK AO2 P0004
                 T01520152 =
2017-05-25 04:15 METAR KEZF 250815Z AUTO 10007KT 070V130 5SM -RA OVC004 15/15 A2948 RMK AO2 P0003
                 T01500150 =
2017-05-25 03:55 METAR KEZF 250755Z AUTO 10010KT 10SM RA OVC006 15/15 A2949 RMK AO2 P0003
                 T01500150 =
2017-05-25 03:35 METAR KEZF 250735Z AUTO 09009KT 10SM -RA OVC006 15/15 A2950 RMK AO2 P0003
                 T01480148 =
2017-05-25 03:15 METAR KEZF 250715Z AUTO 09008G14KT 10SM -RA OVC008 15/15 A2952 RMK AO2 P0001
                 T01470147 =
2017-05-25 02:55 METAR KEZF 250655Z AUTO 10007KT 4SM RA BKN008 OVC012 15/15 A2954 RMK AO2 P0016
                 T01480148 =
2017-05-25 02:35 METAR KEZF 250635Z AUTO 10007KT 7SM RA OVC008 15/15 A2955 RMK AO2 P0012
                 T01470147 =
2017-05-25 02:15 METAR KEZF 250615Z AUTO 10008KT 3SM +RA OVC006 15/15 A2956 RMK AO2 P0008
                 T01470147 =
2017-05-25 01:55 METAR KEZF 250555Z AUTO 09007KT 10SM -RA OVC006 15/15 A2957 RMK AO2 60008
                 T01470147 10170 20147 401800133 =
2017-05-25 01:35 METAR KEZF 250535Z AUTO 09010KT 10SM DZ OVC006 15/15 A2958 RMK AO2 T01470147 =
2017-05-25 01:15 METAR KEZF 250515Z AUTO 08008KT 10SM -RA OVC006 15/15 A2959 RMK AO2 T01480148 =
2017-05-25 00:55 METAR KEZF 250455Z AUTO 08009KT 10SM DZ OVC008 15/15 A2960 RMK AO2 T01500150 =
2017-05-25 00:35 METAR KEZF 250435Z AUTO 09008KT 10SM -DZ OVC008 15/15 A2960 RMK AO2 T01500150 =
2017-05-25 00:15 METAR KEZF 250415Z AUTO 08011G14KT 10SM -DZ OVC008 15/15 A2962 RMK AO2 T01500150
                 =
2017-05-25 00:00 METAR KEZF 250400Z AUTO 09011G17KT 10SM +RA BKN008 OVC014 15/15 A2964 RMK AO2
                 T01500150 =
2017-05-24 23:35 METAR KEZF 250335Z AUTO 09008G14KT 10SM DZ SCT007 BKN011 OVC018 15/15 A2965 RMK
                 AO2 T01510151 =
2017-05-24 23:15 METAR KEZF 250315Z AUTO 09005KT 10SM -RA BKN009 OVC014 16/16 A2966 RMK AO2
                 T01550155 =
2017-05-24 22:55 METAR KEZF 250255Z AUTO 09007KT 10SM -RA SCT011 OVC015 16/16 A2967 RMK AO2 P0006
                 60007 T01550155 =
2017-05-24 22:35 METAR KEZF 250235Z AUTO 10008KT 10SM -RA SCT011 BKN016 OVC022 16/16 A2968 RMK
                 AO2 P0005 T01560156 =
2017-05-24 22:15 METAR KEZF 250215Z AUTO 12009KT 7SM +RA OVC012 16/16 A2970 RMK AO2 P0002
                 T01600160 =
2017-05-24 21:55 METAR KEZF 250155Z AUTO 10007G14KT 10SM -RA OVC012 16/16 A2968 RMK AO2 P0001
                 T01620162 =
2017-05-24 21:35 METAR KEZF 250135Z AUTO 10008KT 10SM OVC012 16/16 A2967 RMK AO2 P0001 T01630163
                 =
2017-05-24 21:15 METAR KEZF 250115Z AUTO 10012G15KT 10SM OVC012 17/15 A2967 RMK AO2 T01680151 =
2017-05-24 20:55 METAR KEZF 250055Z AUTO 11013G17KT 10SM OVC014 17/15 A2968 RMK AO2 T01700150 =
2017-05-24 20:35 METAR KEZF 250035Z AUTO 10011G16KT 10SM BKN014 OVC021 17/15 A2968 RMK AO2
                 T01700152 =
2017-05-24 20:15 METAR KEZF 250015Z AUTO 09011G15KT 10SM BKN016 OVC021 17/15 A2968 RMK AO2
                 T01700152 =
2017-05-24 19:55 METAR KEZF 242355Z AUTO 10010G14KT 10SM BKN016 OVC023 17/15 A2968 RMK AO2
                 T01700154 10180 20167 =
2017-05-24 19:35 METAR KEZF 242335Z AUTO 11007KT 10SM OVC016 17/16 A2969 RMK AO2 T01720155 =
2017-05-24 19:15 METAR KEZF 242315Z AUTO 10006KT 10SM OVC018 17/16 A2969 RMK AO2 T01720155 =
2017-05-24 18:55 METAR KEZF 242255Z AUTO 10007KT 10SM OVC016 17/16 A2969 RMK AO2 T01710155 =
2017-05-24 18:35 METAR KEZF 242235Z AUTO 08007KT 10SM OVC014 17/16 A2968 RMK AO2 T01720156 =
2017-05-24 18:15 METAR KEZF 242215Z AUTO 11006KT 10SM OVC014 17/16 A2969 RMK AO2 T01720157 =
2017-05-24 17:55 METAR KEZF 242155Z AUTO 09005KT 10SM BKN012 OVC016 17/16 A2969 RMK AO2 T01700160
                 =
2017-05-24 17:35 METAR KEZF 242135Z AUTO 09009KT 10SM OVC012 17/16 A2969 RMK AO2 T01700160 =
2017-05-24 17:15 METAR KEZF 242115Z AUTO 09008KT 10SM OVC012 17/16 A2970 RMK AO2 T01720160 =
2017-05-24 16:55 METAR KEZF 242055Z AUTO 13007KT 10SM BKN014 OVC023 18/16 A2970 RMK AO2 T01800158
                 =
2017-05-24 16:35 METAR KEZF 242035Z AUTO 11006KT 10SM BKN016 OVC021 18/16 A2970 RMK AO2 T01770158
                 =
2017-05-24 16:15 METAR KEZF 242015Z AUTO 10006KT 10SM BKN012 OVC020 18/17 A2970 RMK AO2 T01760171
                 =
2017-05-24 15:55 METAR KEZF 241955Z AUTO 10006KT 10SM BKN012 OVC018 18/17 A2971 RMK AO2 T01760171
                 =
2017-05-24 15:35 METAR KEZF 241935Z AUTO 14007KT 10SM OVC012 18/17 A2972 RMK AO2 T01760169 =
2017-05-24 15:15 METAR KEZF 241915Z AUTO 11007KT 10SM OVC014 18/17 A2971 RMK AO2 T01750168 =
2017-05-24 14:55 METAR KEZF 241855Z AUTO 12005KT 10SM OVC014 18/17 A2972 RMK AO2 T01750167 =
2017-05-24 14:35 METAR KEZF 241835Z AUTO 11005KT 10SM BKN014 OVC019 18/16 A2972 RMK AO2 T01760164
                 =
2017-05-24 14:15 METAR KEZF 241815Z AUTO 13006KT 10SM BKN019 OVC023 18/17 A2972 RMK AO2 T01770169
                 =
2017-05-24 13:55 METAR KEZF 241755Z AUTO 12006KT 10SM SCT016 OVC023 18/16 A2972 RMK AO2 T01770161
                 10178 20142 =
2017-05-24 13:35 METAR KEZF 241735Z AUTO 14004KT 10SM SCT016 OVC023 18/16 A2974 RMK AO2 T01760160
                 =
2017-05-24 13:15 METAR KEZF 241715Z AUTO 10004KT 10SM SCT014 OVC021 18/16 A2972 RMK AO2 T01750161
                 =
2017-05-24 12:55 METAR KEZF 241655Z AUTO 07006KT 10SM BKN015 OVC020 17/16 A2972 RMK AO2 T01710161
                 =
2017-05-24 12:35 METAR KEZF 241635Z AUTO 09005KT 10SM OVC016 17/16 A2972 RMK AO2 T01660157 =
2017-05-24 12:15 METAR KEZF 241615Z AUTO 06003KT 10SM SCT013 OVC021 17/17 A2972 RMK AO2 T01680166
                 =
2017-05-24 11:55 METAR KEZF 241555Z AUTO 09003KT 7SM SCT009 BKN016 OVC021 16/16 A2974 RMK AO2
                 T01600160 =
2017-05-24 11:35 METAR KEZF 241535Z AUTO 07003KT 4SM BR SCT008 BKN015 OVC023 16/16 A2974 RMK AO2
                 T01620162 =
2017-05-24 11:15 METAR KEZF 241515Z AUTO 08004KT 10SM SCT008 BKN012 OVC026 16/16 A2974 RMK AO2
                 T01590159 =
2017-05-24 10:55 METAR KEZF 241455Z AUTO 08005KT 5SM BR OVC012 15/15 A2975 RMK AO2 T01540154 =
2017-05-24 10:35 METAR KEZF 241435Z AUTO 05003KT 10SM OVC012 16/16 A2973 RMK AO2 T01550155 =
2017-05-24 10:15 METAR KEZF 241415Z AUTO 00000KT 7SM SCT007 OVC012 15/15 A2973 RMK AO2 T01530153
                 =
2017-05-24 09:55 METAR KEZF 241355Z AUTO 03003KT 10SM SCT009 BKN012 OVC026 15/15 A2973 RMK AO2
                 T01510151 =
2017-05-24 09:35 METAR KEZF 241335Z AUTO 00000KT 10SM BKN007 BKN012 OVC026 15/15 A2973 RMK AO2
                 T01510151 =
2017-05-24 09:15 METAR KEZF 241315Z AUTO 04004KT 10SM OVC005 15/15 A2973 RMK AO2 T01480148 =
2017-05-24 08:55 METAR KEZF 241255Z AUTO 04003KT 10SM OVC005 15/15 A2973 RMK AO2 T01470147 =
2017-05-24 08:35 METAR KEZF 241235Z AUTO 03004KT 10SM OVC005 15/15 A2973 RMK AO2 T01450145 =

Support USWX by starting your Amazon purchase here.